LPA4320 UGTB-VIDP
Flight info
| Callsign | LPA4320 |
|---|---|
| Flight time | N/A |
| Altitude | 37000 |
| Route | DISKA M737 VERCA M747 BODKA B375 GIRUN G792 MSD B411 PAMTU P628 BURTA/N0451F390 P628 RK G202 MERUN G452 LKA LKA7A |
| Aircraft | A320/M-SDE3FGHIRWY/LB1 |
Departure
| Time | 2026-04-26 17:54 |
|---|---|
| Airport | Tbilisi International Airport (UGTB) |
Arrival
| Time | N/A |
|---|---|
| Airport | Indira Gandhi International Airport (VIDP) |
| Time | Latitude | Longitude | Altitude | Speed | Heading |
|---|---|---|---|---|---|
| 2026-04-26 17:10 | 41.66918 | 44.95973 | 1527 ft | 0 kts | 222° |
| 2026-04-26 17:14 | 41.66918 | 44.95974 | 1526 ft | 0 kts | 222° |
| 2026-04-26 17:39 | 41.66921 | 44.95977 | 1526 ft | 2 kts | 224° |
| 2026-04-26 17:39 | 41.66933 | 44.95992 | 1518 ft | 2 kts | 228° |
| 2026-04-26 17:39 | 41.66944 | 44.96008 | 1524 ft | 2 kts | 230° |
| 2026-04-26 17:39 | 41.66955 | 44.96025 | 1518 ft | 2 kts | 236° |
| 2026-04-26 17:40 | 41.66963 | 44.96044 | 1520 ft | 2 kts | 250° |
| 2026-04-26 17:40 | 41.66967 | 44.96058 | 1520 ft | 2 kts | 270° |
| 2026-04-26 17:40 | 41.66960 | 44.96084 | 1521 ft | 1 kts | 313° |
| 2026-04-26 17:40 | 41.66958 | 44.96088 | 1521 ft | 0 kts | 314° |
| 2026-04-26 17:46 | 41.66969 | 44.96072 | 1519 ft | 10 kts | 313° |
| 2026-04-26 17:46 | 41.67023 | 44.95994 | 1525 ft | 12 kts | 313° |
| 2026-04-26 17:46 | 41.67069 | 44.95908 | 1523 ft | 11 kts | 299° |
| 2026-04-26 17:46 | 41.67117 | 44.95829 | 1526 ft | 11 kts | 313° |
| 2026-04-26 17:47 | 41.67165 | 44.95761 | 1526 ft | 10 kts | 313° |
| 2026-04-26 17:47 | 41.67195 | 44.95720 | 1521 ft | 9 kts | 315° |
| 2026-04-26 17:47 | 41.67250 | 44.95646 | 1525 ft | 10 kts | 314° |
| 2026-04-26 17:47 | 41.67302 | 44.95574 | 1526 ft | 11 kts | 314° |
| 2026-04-26 17:48 | 41.67355 | 44.95499 | 1522 ft | 11 kts | 313° |
| 2026-04-26 17:48 | 41.67406 | 44.95426 | 1523 ft | 10 kts | 311° |
| 2026-04-26 17:48 | 41.67451 | 44.95354 | 1524 ft | 10 kts | 310° |
| 2026-04-26 17:48 | 41.67492 | 44.95291 | 1523 ft | 8 kts | 311° |
| 2026-04-26 17:49 | 41.67525 | 44.95240 | 1524 ft | 6 kts | 311° |
| 2026-04-26 17:49 | 41.67556 | 44.95193 | 1522 ft | 13 kts | 312° |
| 2026-04-26 17:49 | 41.67640 | 44.95078 | 1526 ft | 17 kts | 314° |
| 2026-04-26 17:49 | 41.67651 | 44.94934 | 1524 ft | 17 kts | 252° |
| 2026-04-26 17:50 | 41.67617 | 44.94785 | 1521 ft | 17 kts | 253° |
| 2026-04-26 17:50 | 41.67587 | 44.94660 | 1523 ft | 10 kts | 251° |
| 2026-04-26 17:50 | 41.67568 | 44.94582 | 1524 ft | 8 kts | 252° |
| 2026-04-26 17:50 | 41.67543 | 44.94477 | 1522 ft | 17 kts | 252° |
| 2026-04-26 17:51 | 41.67478 | 44.94415 | 1521 ft | 11 kts | 141° |
| 2026-04-26 17:51 | 41.67451 | 44.94439 | 1524 ft | 0 kts | 139° |
| 2026-04-26 17:54 | 41.67028 | 44.94973 | 1525 ft | 111 kts | 136° |
| 2026-04-26 17:54 | 41.66316 | 44.95888 | 1562 ft | 167 kts | 139° |
| 2026-04-26 17:54 | 41.65406 | 44.96939 | 2099 ft | 182 kts | 137° |
| 2026-04-26 17:54 | 41.64414 | 44.98177 | 2565 ft | 205 kts | 136° |
| 2026-04-26 17:55 | 41.63326 | 44.99565 | 2845 ft | 228 kts | 136° |
| 2026-04-26 17:55 | 41.62114 | 45.01108 | 3149 ft | 252 kts | 136° |
| 2026-04-26 17:55 | 41.60803 | 45.02769 | 3632 ft | 266 kts | 137° |
| 2026-04-26 17:55 | 41.59449 | 45.04481 | 4425 ft | 268 kts | 137° |
| 2026-04-26 17:56 | 41.58105 | 45.06173 | 5255 ft | 269 kts | 137° |
| 2026-04-26 17:56 | 41.55522 | 45.09879 | 6663 ft | 280 kts | 123° |
| 2026-04-26 17:57 | 41.53416 | 45.14352 | 8038 ft | 288 kts | 124° |
| 2026-04-26 17:57 | 41.52343 | 45.16636 | 8737 ft | 292 kts | 124° |
| 2026-04-26 17:57 | 41.51261 | 45.18945 | 9432 ft | 296 kts | 124° |
| 2026-04-26 17:57 | 41.50158 | 45.21290 | 10096 ft | 300 kts | 124° |
| 2026-04-26 17:58 | 41.46399 | 45.29088 | 10559 ft | 364 kts | 129° |
| 2026-04-26 17:59 | 41.42880 | 45.34293 | 11222 ft | 386 kts | 135° |
| 2026-04-26 17:59 | 41.41045 | 45.36920 | 11792 ft | 390 kts | 135° |
| 2026-04-26 17:59 | 41.39210 | 45.39548 | 12381 ft | 393 kts | 135° |
| 2026-04-26 17:59 | 41.37338 | 45.42227 | 12979 ft | 396 kts | 135° |
| 2026-04-26 18:00 | 41.35457 | 45.44913 | 13585 ft | 398 kts | 135° |
| 2026-04-26 18:00 | 41.33554 | 45.47629 | 14141 ft | 401 kts | 135° |
| 2026-04-26 18:00 | 41.31645 | 45.50355 | 14648 ft | 404 kts | 135° |
| 2026-04-26 18:00 | 41.29719 | 45.53100 | 15156 ft | 407 kts | 135° |
| 2026-04-26 18:01 | 41.27797 | 45.55828 | 15663 ft | 410 kts | 135° |
| 2026-04-26 18:01 | 41.25820 | 45.58630 | 16158 ft | 413 kts | 135° |
| 2026-04-26 18:01 | 41.23862 | 45.61408 | 16662 ft | 416 kts | 135° |
| 2026-04-26 18:01 | 41.22028 | 45.64409 | 17149 ft | 422 kts | 126° |
| 2026-04-26 18:02 | 41.20569 | 45.67821 | 17625 ft | 428 kts | 116° |
| 2026-04-26 18:02 | 41.19824 | 45.70311 | 17941 ft | 431 kts | 111° |
| 2026-04-26 18:02 | 41.18516 | 45.75328 | 18528 ft | 435 kts | 111° |
| 2026-04-26 18:02 | 41.17518 | 45.79134 | 18910 ft | 438 kts | 111° |
| 2026-04-26 18:03 | 41.16511 | 45.82961 | 19301 ft | 440 kts | 111° |
| 2026-04-26 18:03 | 41.15495 | 45.86802 | 19686 ft | 442 kts | 112° |
| 2026-04-26 18:03 | 41.14468 | 45.90670 | 20050 ft | 445 kts | 112° |
| 2026-04-26 18:03 | 41.13435 | 45.94553 | 20421 ft | 447 kts | 112° |
| 2026-04-26 18:04 | 41.12397 | 45.98457 | 20783 ft | 449 kts | 112° |
| 2026-04-26 18:04 | 41.11357 | 46.02367 | 21137 ft | 451 kts | 112° |
| 2026-04-26 18:04 | 41.10311 | 46.06295 | 21477 ft | 453 kts | 112° |
| 2026-04-26 18:05 | 41.08215 | 46.14143 | 22130 ft | 456 kts | 112° |
| 2026-04-26 18:05 | 41.07157 | 46.18107 | 22444 ft | 458 kts | 112° |
| 2026-04-26 18:05 | 41.06083 | 46.22110 | 22768 ft | 460 kts | 113° |
| 2026-04-26 18:05 | 41.05007 | 46.26101 | 23091 ft | 461 kts | 113° |
| 2026-04-26 18:06 | 41.03925 | 46.30106 | 23408 ft | 463 kts | 113° |
| 2026-04-26 18:06 | 41.02843 | 46.34134 | 23702 ft | 464 kts | 113° |
| 2026-04-26 18:06 | 41.01765 | 46.38177 | 23956 ft | 466 kts | 112° |
| 2026-04-26 18:06 | 41.00687 | 46.42231 | 24206 ft | 467 kts | 112° |
| 2026-04-26 18:07 | 40.99608 | 46.46294 | 24451 ft | 469 kts | 112° |
| 2026-04-26 18:07 | 40.98519 | 46.50377 | 24683 ft | 470 kts | 112° |
| 2026-04-26 18:07 | 40.97424 | 46.54462 | 24905 ft | 471 kts | 113° |
| 2026-04-26 18:07 | 40.96695 | 46.57170 | 25044 ft | 472 kts | 113° |
| 2026-04-26 18:08 | 40.95216 | 46.62640 | 25318 ft | 474 kts | 113° |
| 2026-04-26 18:08 | 40.94112 | 46.66713 | 25514 ft | 475 kts | 113° |
| 2026-04-26 18:08 | 40.92996 | 46.70827 | 25707 ft | 477 kts | 113° |
| 2026-04-26 18:08 | 40.91876 | 46.74962 | 25895 ft | 478 kts | 113° |
| 2026-04-26 18:09 | 40.90749 | 46.79112 | 26073 ft | 479 kts | 113° |
| 2026-04-26 18:09 | 40.89635 | 46.83216 | 26243 ft | 480 kts | 113° |
| 2026-04-26 18:09 | 40.88506 | 46.87366 | 26459 ft | 480 kts | 113° |
| 2026-04-26 18:09 | 40.87361 | 46.91561 | 26706 ft | 479 kts | 113° |
| 2026-04-26 18:10 | 40.86228 | 46.95695 | 26944 ft | 478 kts | 113° |
| 2026-04-26 18:10 | 40.85105 | 46.99772 | 27176 ft | 478 kts | 113° |
| 2026-04-26 18:10 | 40.83966 | 47.03897 | 27422 ft | 477 kts | 113° |
| 2026-04-26 18:10 | 40.82828 | 47.08010 | 27661 ft | 477 kts | 113° |
| 2026-04-26 18:11 | 40.81688 | 47.12127 | 27905 ft | 476 kts | 113° |
| 2026-04-26 18:11 | 40.80552 | 47.16221 | 28168 ft | 476 kts | 113° |
| 2026-04-26 18:11 | 40.79411 | 47.20330 | 28429 ft | 475 kts | 113° |
| 2026-04-26 18:11 | 40.78274 | 47.24418 | 28696 ft | 474 kts | 113° |
| 2026-04-26 18:12 | 40.77135 | 47.28499 | 28957 ft | 474 kts | 113° |
| 2026-04-26 18:12 | 40.75992 | 47.32574 | 29222 ft | 473 kts | 114° |
| 2026-04-26 18:12 | 40.74849 | 47.36642 | 29488 ft | 473 kts | 114° |
| 2026-04-26 18:12 | 40.73723 | 47.40648 | 29757 ft | 472 kts | 114° |
| 2026-04-26 18:13 | 40.72582 | 47.44713 | 30021 ft | 471 kts | 114° |
| 2026-04-26 18:13 | 40.71446 | 47.48766 | 30254 ft | 471 kts | 114° |
| 2026-04-26 18:13 | 40.70309 | 47.52813 | 30466 ft | 471 kts | 114° |
| 2026-04-26 18:13 | 40.69538 | 47.55547 | 30607 ft | 471 kts | 114° |
| 2026-04-26 18:14 | 40.68027 | 47.60892 | 30881 ft | 470 kts | 114° |
| 2026-04-26 18:14 | 40.66885 | 47.64927 | 31087 ft | 470 kts | 114° |
| 2026-04-26 18:14 | 40.65742 | 47.68976 | 31298 ft | 470 kts | 114° |
| 2026-04-26 18:14 | 40.64602 | 47.73011 | 31509 ft | 470 kts | 114° |
| 2026-04-26 18:15 | 40.63461 | 47.77038 | 31708 ft | 469 kts | 114° |
| 2026-04-26 18:15 | 40.62313 | 47.81069 | 31926 ft | 469 kts | 114° |
| 2026-04-26 18:15 | 40.61183 | 47.85026 | 32127 ft | 469 kts | 114° |
| 2026-04-26 18:15 | 40.60044 | 47.89012 | 32340 ft | 469 kts | 114° |
| 2026-04-26 18:16 | 40.58885 | 47.93060 | 32567 ft | 468 kts | 114° |
| 2026-04-26 18:16 | 40.56700 | 48.01126 | 32969 ft | 469 kts | 111° |
| 2026-04-26 18:16 | 40.55704 | 48.05209 | 33181 ft | 469 kts | 110° |
| 2026-04-26 18:17 | 40.54739 | 48.09308 | 33393 ft | 469 kts | 110° |
| 2026-04-26 18:17 | 40.53779 | 48.13400 | 33587 ft | 469 kts | 110° |
| 2026-04-26 18:17 | 40.52805 | 48.17489 | 33788 ft | 468 kts | 111° |
| 2026-04-26 18:17 | 40.51817 | 48.21562 | 33984 ft | 468 kts | 111° |
| 2026-04-26 18:18 | 40.50821 | 48.25614 | 34167 ft | 467 kts | 111° |
| 2026-04-26 18:18 | 40.49816 | 48.29680 | 34333 ft | 467 kts | 111° |
| 2026-04-26 18:18 | 40.48805 | 48.33748 | 34489 ft | 467 kts | 111° |
| 2026-04-26 18:18 | 40.47800 | 48.37778 | 34645 ft | 467 kts | 111° |
| 2026-04-26 18:19 | 40.46780 | 48.41862 | 34800 ft | 467 kts | 111° |
| 2026-04-26 18:19 | 40.45771 | 48.45905 | 34943 ft | 467 kts | 111° |
| 2026-04-26 18:19 | 40.44761 | 48.49964 | 35094 ft | 467 kts | 111° |
| 2026-04-26 18:19 | 40.43765 | 48.53973 | 35233 ft | 467 kts | 111° |
| 2026-04-26 18:20 | 40.42759 | 48.58020 | 35385 ft | 467 kts | 111° |
| 2026-04-26 18:20 | 40.41748 | 48.62071 | 35511 ft | 467 kts | 112° |
| 2026-04-26 18:20 | 40.40731 | 48.66111 | 35647 ft | 466 kts | 112° |
| 2026-04-26 18:20 | 40.40385 | 48.67481 | 35692 ft | 466 kts | 112° |
| 2026-04-26 18:21 | 40.38690 | 48.74199 | 35913 ft | 466 kts | 112° |
| 2026-04-26 18:21 | 40.37671 | 48.78233 | 36043 ft | 466 kts | 112° |
| 2026-04-26 18:21 | 40.36649 | 48.82278 | 36163 ft | 466 kts | 112° |
| 2026-04-26 18:21 | 40.35630 | 48.86305 | 36284 ft | 465 kts | 112° |
| 2026-04-26 18:22 | 40.34611 | 48.90328 | 36420 ft | 465 kts | 112° |
| 2026-04-26 18:22 | 40.33595 | 48.94336 | 36540 ft | 464 kts | 112° |
| 2026-04-26 18:22 | 40.32587 | 48.98295 | 36664 ft | 464 kts | 112° |
| 2026-04-26 18:22 | 40.31566 | 49.02304 | 36793 ft | 463 kts | 112° |
| 2026-04-26 18:23 | 40.30542 | 49.06313 | 36934 ft | 462 kts | 112° |
| 2026-04-26 18:23 | 40.29518 | 49.10291 | 37051 ft | 462 kts | 112° |
| 2026-04-26 18:23 | 40.27439 | 49.18304 | 37062 ft | 466 kts | 112° |
| 2026-04-26 18:24 | 40.25343 | 49.26364 | 37060 ft | 469 kts | 112° |
| 2026-04-26 18:24 | 40.23254 | 49.34445 | 37063 ft | 469 kts | 112° |
| 2026-04-26 18:25 | 40.21164 | 49.42530 | 37060 ft | 469 kts | 112° |
| 2026-04-26 18:25 | 40.19065 | 49.50587 | 37062 ft | 470 kts | 113° |
| 2026-04-26 18:26 | 40.16947 | 49.58686 | 37067 ft | 470 kts | 113° |
| 2026-04-26 18:26 | 40.14849 | 49.66737 | 37067 ft | 471 kts | 113° |
| 2026-04-26 18:27 | 40.12724 | 49.74833 | 37074 ft | 471 kts | 113° |
| 2026-04-26 18:27 | 40.10578 | 49.82933 | 37072 ft | 471 kts | 113° |
| 2026-04-26 18:28 | 40.08430 | 49.91033 | 37077 ft | 472 kts | 113° |
| 2026-04-26 18:28 | 40.06288 | 49.99119 | 37084 ft | 472 kts | 113° |
| 2026-04-26 18:29 | 40.04503 | 50.05839 | 37082 ft | 472 kts | 113° |
| 2026-04-26 18:29 | 40.02339 | 50.13946 | 37086 ft | 472 kts | 113° |
| 2026-04-26 18:30 | 39.99816 | 50.23353 | 37088 ft | 473 kts | 113° |
| 2026-04-26 18:30 | 39.98012 | 50.30078 | 37093 ft | 473 kts | 113° |
| 2026-04-26 18:31 | 39.95830 | 50.38172 | 37096 ft | 473 kts | 113° |
| 2026-04-26 18:31 | 39.93638 | 50.46269 | 37094 ft | 473 kts | 113° |
| 2026-04-26 18:32 | 39.91448 | 50.54346 | 37094 ft | 473 kts | 114° |
| 2026-04-26 18:32 | 39.89249 | 50.62433 | 37098 ft | 473 kts | 113° |
| 2026-04-26 18:33 | 39.87050 | 50.70516 | 37098 ft | 474 kts | 114° |
| 2026-04-26 18:33 | 39.84847 | 50.78548 | 37095 ft | 474 kts | 114° |
| 2026-04-26 18:34 | 39.82620 | 50.86629 | 37096 ft | 474 kts | 114° |
| 2026-04-26 18:34 | 39.80400 | 50.94681 | 37096 ft | 474 kts | 114° |
| 2026-04-26 18:35 | 39.78162 | 51.02769 | 37097 ft | 474 kts | 114° |
| 2026-04-26 18:35 | 39.75924 | 51.10850 | 37095 ft | 475 kts | 114° |
| 2026-04-26 18:36 | 39.73678 | 51.18927 | 37098 ft | 475 kts | 114° |
| 2026-04-26 18:36 | 39.71427 | 51.26982 | 37095 ft | 475 kts | 114° |
| 2026-04-26 18:37 | 39.69187 | 51.35003 | 37101 ft | 475 kts | 114° |
| 2026-04-26 18:37 | 39.66922 | 51.43055 | 37093 ft | 475 kts | 114° |
| 2026-04-26 18:38 | 39.64636 | 51.51121 | 37095 ft | 475 kts | 115° |
| 2026-04-26 18:38 | 39.62231 | 51.59085 | 37098 ft | 474 kts | 116° |
| 2026-04-26 18:39 | 39.59730 | 51.66953 | 37098 ft | 474 kts | 116° |
| 2026-04-26 18:39 | 39.57232 | 51.74848 | 37093 ft | 474 kts | 116° |
| 2026-04-26 18:40 | 39.54763 | 51.82791 | 37095 ft | 474 kts | 116° |
| 2026-04-26 18:40 | 39.52305 | 51.90704 | 37094 ft | 474 kts | 116° |
| 2026-04-26 18:41 | 39.49832 | 51.98578 | 37091 ft | 474 kts | 116° |
| 2026-04-26 18:41 | 39.47340 | 52.06470 | 37087 ft | 474 kts | 116° |
| 2026-04-26 18:42 | 39.44846 | 52.14369 | 37086 ft | 474 kts | 116° |
| 2026-04-26 18:42 | 39.42357 | 52.22254 | 37085 ft | 474 kts | 116° |
| 2026-04-26 18:43 | 39.39857 | 52.30136 | 37083 ft | 473 kts | 116° |
| 2026-04-26 18:43 | 39.37348 | 52.38003 | 37084 ft | 473 kts | 116° |
| 2026-04-26 18:44 | 39.34835 | 52.45879 | 37083 ft | 474 kts | 116° |
| 2026-04-26 18:44 | 39.32317 | 52.53745 | 37083 ft | 474 kts | 116° |
| 2026-04-26 18:45 | 39.29802 | 52.61557 | 37083 ft | 474 kts | 116° |
| 2026-04-26 18:45 | 39.27317 | 52.69447 | 37083 ft | 474 kts | 115° |
| 2026-04-26 18:46 | 39.24957 | 52.77400 | 37084 ft | 474 kts | 114° |
| 2026-04-26 18:46 | 39.22614 | 52.85347 | 37084 ft | 474 kts | 115° |
| 2026-04-26 18:47 | 39.20244 | 52.93229 | 37085 ft | 474 kts | 115° |
| 2026-04-26 18:47 | 39.17829 | 53.01139 | 37087 ft | 474 kts | 115° |
| 2026-04-26 18:48 | 39.15414 | 53.09043 | 37089 ft | 474 kts | 115° |
| 2026-04-26 18:48 | 39.13001 | 53.16959 | 37083 ft | 474 kts | 115° |
| 2026-04-26 18:49 | 39.10589 | 53.24865 | 37082 ft | 475 kts | 115° |
| 2026-04-26 18:49 | 39.08164 | 53.32769 | 37086 ft | 475 kts | 115° |
| 2026-04-26 18:50 | 39.05732 | 53.40674 | 37078 ft | 475 kts | 115° |
| 2026-04-26 18:50 | 39.03315 | 53.48530 | 37074 ft | 475 kts | 115° |
| 2026-04-26 18:51 | 39.00871 | 53.56423 | 37077 ft | 475 kts | 115° |
| 2026-04-26 18:51 | 38.98409 | 53.64317 | 37075 ft | 475 kts | 115° |
| 2026-04-26 18:52 | 38.95949 | 53.72221 | 37067 ft | 476 kts | 115° |
| 2026-04-26 18:52 | 38.93503 | 53.80114 | 37074 ft | 476 kts | 115° |
| 2026-04-26 18:53 | 38.91050 | 53.88013 | 37065 ft | 476 kts | 115° |
| 2026-04-26 18:53 | 38.88598 | 53.95866 | 37061 ft | 476 kts | 115° |
| 2026-04-26 18:54 | 38.86125 | 54.03768 | 37065 ft | 477 kts | 115° |
| 2026-04-26 18:54 | 38.83642 | 54.11663 | 37067 ft | 477 kts | 115° |
| 2026-04-26 18:55 | 38.81158 | 54.19545 | 37064 ft | 477 kts | 115° |
| 2026-04-26 18:55 | 38.78661 | 54.27449 | 37064 ft | 477 kts | 115° |
| 2026-04-26 18:56 | 38.76166 | 54.35319 | 37055 ft | 477 kts | 115° |
| 2026-04-26 18:56 | 38.73673 | 54.43145 | 37057 ft | 476 kts | 116° |
| 2026-04-26 18:57 | 38.71588 | 54.49671 | 37050 ft | 477 kts | 115° |
| 2026-04-26 18:57 | 38.68660 | 54.58859 | 37054 ft | 477 kts | 115° |
| 2026-04-26 18:58 | 38.66147 | 54.66716 | 37043 ft | 476 kts | 116° |
| 2026-04-26 18:58 | 38.63627 | 54.74562 | 37043 ft | 477 kts | 116° |
| 2026-04-26 18:59 | 38.61115 | 54.82361 | 37045 ft | 477 kts | 116° |
| 2026-04-26 18:59 | 38.58577 | 54.90197 | 37032 ft | 477 kts | 116° |
| 2026-04-26 19:00 | 38.56031 | 54.98030 | 37033 ft | 477 kts | 116° |
| 2026-04-26 19:00 | 38.53484 | 55.05873 | 37035 ft | 477 kts | 116° |
| 2026-04-26 19:01 | 38.50927 | 55.13708 | 37032 ft | 478 kts | 116° |
| 2026-04-26 19:01 | 38.48366 | 55.21541 | 37034 ft | 478 kts | 116° |
| 2026-04-26 19:02 | 38.45814 | 55.29346 | 37033 ft | 479 kts | 116° |
| 2026-04-26 19:02 | 38.43654 | 55.35918 | 37034 ft | 479 kts | 116° |
| 2026-04-26 19:03 | 38.40664 | 55.45018 | 37038 ft | 480 kts | 116° |
| 2026-04-26 19:03 | 38.38063 | 55.52869 | 37048 ft | 480 kts | 116° |
| 2026-04-26 19:04 | 38.35432 | 55.60681 | 37052 ft | 479 kts | 117° |
| 2026-04-26 19:04 | 38.32778 | 55.68466 | 37049 ft | 479 kts | 117° |
| 2026-04-26 19:05 | 38.28811 | 55.80084 | 37058 ft | 479 kts | 117° |
| 2026-04-26 19:06 | 38.26153 | 55.87851 | 37060 ft | 478 kts | 117° |
| 2026-04-26 19:06 | 38.23502 | 55.95594 | 37059 ft | 478 kts | 117° |
| 2026-04-26 19:07 | 38.20837 | 56.03339 | 37064 ft | 478 kts | 117° |
| 2026-04-26 19:07 | 38.18171 | 56.11092 | 37059 ft | 478 kts | 117° |
| 2026-04-26 19:08 | 38.15509 | 56.18825 | 37061 ft | 478 kts | 117° |
| 2026-04-26 19:08 | 38.12836 | 56.26542 | 37063 ft | 478 kts | 117° |
| 2026-04-26 19:09 | 38.09980 | 56.34079 | 37060 ft | 473 kts | 126° |
| 2026-04-26 19:09 | 38.06066 | 56.40731 | 37059 ft | 470 kts | 132° |
| 2026-04-26 19:10 | 38.02061 | 56.47295 | 37054 ft | 471 kts | 131° |
| 2026-04-26 19:10 | 37.98056 | 56.53869 | 37055 ft | 472 kts | 132° |
| 2026-04-26 19:11 | 37.94024 | 56.60466 | 37049 ft | 472 kts | 132° |
| 2026-04-26 19:11 | 37.90018 | 56.67000 | 37046 ft | 473 kts | 132° |
| 2026-04-26 19:12 | 37.85975 | 56.73574 | 37048 ft | 473 kts | 132° |
| 2026-04-26 19:12 | 37.81933 | 56.80139 | 37052 ft | 473 kts | 132° |
| 2026-04-26 19:13 | 37.77888 | 56.86703 | 37055 ft | 473 kts | 132° |
| 2026-04-26 19:13 | 37.73823 | 56.93266 | 37058 ft | 473 kts | 132° |
| 2026-04-26 19:14 | 37.69771 | 56.99789 | 37066 ft | 472 kts | 132° |
| 2026-04-26 19:14 | 37.65709 | 57.06332 | 37082 ft | 473 kts | 132° |
| 2026-04-26 19:15 | 37.61686 | 57.12809 | 37099 ft | 473 kts | 132° |
| 2026-04-26 19:15 | 37.57620 | 57.19330 | 37115 ft | 473 kts | 132° |
| 2026-04-26 19:16 | 37.53549 | 57.25839 | 37124 ft | 473 kts | 132° |
| 2026-04-26 19:16 | 37.49486 | 57.32342 | 37123 ft | 473 kts | 131° |
| 2026-04-26 19:17 | 37.45699 | 57.39090 | 37122 ft | 475 kts | 127° |
| 2026-04-26 19:17 | 37.42138 | 57.46122 | 37110 ft | 476 kts | 126° |
| 2026-04-26 19:18 | 37.38561 | 57.53146 | 37099 ft | 476 kts | 127° |
| 2026-04-26 19:18 | 37.34901 | 57.60079 | 37092 ft | 476 kts | 127° |
| 2026-04-26 19:19 | 37.31204 | 57.66987 | 37078 ft | 476 kts | 128° |
| 2026-04-26 19:19 | 37.27538 | 57.73854 | 37078 ft | 477 kts | 127° |
| 2026-04-26 19:20 | 37.23846 | 57.80794 | 37079 ft | 477 kts | 127° |
| 2026-04-26 19:20 | 37.20151 | 57.87722 | 37081 ft | 478 kts | 128° |
| 2026-04-26 19:21 | 37.16446 | 57.94649 | 37091 ft | 479 kts | 128° |
| 2026-04-26 19:21 | 37.12731 | 58.01578 | 37092 ft | 479 kts | 128° |
| 2026-04-26 19:22 | 37.09047 | 58.08473 | 37096 ft | 479 kts | 128° |
| 2026-04-26 19:22 | 37.05348 | 58.15401 | 37106 ft | 478 kts | 128° |
| 2026-04-26 19:23 | 37.01636 | 58.22320 | 37108 ft | 479 kts | 128° |
| 2026-04-26 19:23 | 36.97923 | 58.29231 | 37108 ft | 478 kts | 128° |
| 2026-04-26 19:24 | 36.94206 | 58.36130 | 37118 ft | 478 kts | 128° |
| 2026-04-26 19:24 | 36.88639 | 58.46432 | 37131 ft | 479 kts | 128° |
| 2026-04-26 19:25 | 36.86140 | 58.51049 | 37129 ft | 479 kts | 128° |
| 2026-04-26 19:25 | 36.81165 | 58.60221 | 37138 ft | 479 kts | 128° |
| 2026-04-26 19:26 | 36.78049 | 58.65941 | 37144 ft | 479 kts | 128° |
| 2026-04-26 19:26 | 36.73681 | 58.73915 | 37158 ft | 479 kts | 129° |
| 2026-04-26 19:27 | 36.70520 | 58.79670 | 37156 ft | 479 kts | 129° |
| 2026-04-26 19:27 | 36.66758 | 58.86523 | 37157 ft | 479 kts | 129° |
| 2026-04-26 19:28 | 36.63016 | 58.93338 | 37158 ft | 480 kts | 129° |
| 2026-04-26 19:28 | 36.59242 | 59.00201 | 37166 ft | 480 kts | 129° |
| 2026-04-26 19:29 | 36.55454 | 59.07050 | 37167 ft | 480 kts | 129° |
| 2026-04-26 19:29 | 36.51668 | 59.13888 | 37165 ft | 480 kts | 129° |
| 2026-04-26 19:30 | 36.47894 | 59.20704 | 37173 ft | 481 kts | 129° |
| 2026-04-26 19:30 | 36.44713 | 59.26433 | 37171 ft | 481 kts | 129° |
| 2026-04-26 19:31 | 36.40288 | 59.34367 | 37178 ft | 481 kts | 129° |
| 2026-04-26 19:31 | 36.36474 | 59.41210 | 37176 ft | 482 kts | 129° |
| 2026-04-26 19:32 | 36.32650 | 59.48058 | 37179 ft | 483 kts | 129° |
| 2026-04-26 19:32 | 36.28817 | 59.54903 | 37185 ft | 483 kts | 129° |
| 2026-04-26 19:33 | 36.24979 | 59.61746 | 37185 ft | 484 kts | 130° |
| 2026-04-26 19:33 | 36.20861 | 59.68267 | 37185 ft | 479 kts | 136° |
| 2026-04-26 19:34 | 36.16503 | 59.74449 | 37186 ft | 480 kts | 136° |
| 2026-04-26 19:34 | 36.12117 | 59.80677 | 37181 ft | 480 kts | 136° |
| 2026-04-26 19:35 | 36.07709 | 59.86913 | 37181 ft | 481 kts | 136° |
| 2026-04-26 19:35 | 36.03306 | 59.93140 | 37188 ft | 481 kts | 136° |
| 2026-04-26 19:36 | 35.99638 | 59.98316 | 37188 ft | 481 kts | 136° |
| 2026-04-26 19:36 | 35.94472 | 60.05585 | 37191 ft | 481 kts | 137° |
| 2026-04-26 19:37 | 35.90045 | 60.11795 | 37186 ft | 481 kts | 137° |
| 2026-04-26 19:37 | 35.85646 | 60.17973 | 37183 ft | 481 kts | 136° |
| 2026-04-26 19:38 | 35.81225 | 60.24172 | 37189 ft | 481 kts | 137° |
| 2026-04-26 19:38 | 35.76794 | 60.30358 | 37192 ft | 482 kts | 137° |
| 2026-04-26 19:39 | 35.72351 | 60.36550 | 37180 ft | 482 kts | 137° |
| 2026-04-26 19:39 | 35.67907 | 60.42726 | 37179 ft | 482 kts | 137° |
| 2026-04-26 19:40 | 35.63489 | 60.48876 | 37175 ft | 482 kts | 137° |
| 2026-04-26 19:40 | 35.59042 | 60.55065 | 37168 ft | 482 kts | 137° |
| 2026-04-26 19:41 | 35.54590 | 60.61232 | 37166 ft | 482 kts | 137° |
| 2026-04-26 19:41 | 35.50901 | 60.66374 | 37163 ft | 482 kts | 137° |
| 2026-04-26 19:42 | 35.45712 | 60.73607 | 37154 ft | 482 kts | 137° |
| 2026-04-26 19:42 | 35.41270 | 60.79775 | 37149 ft | 482 kts | 137° |
| 2026-04-26 19:43 | 35.36845 | 60.85900 | 37146 ft | 482 kts | 137° |
| 2026-04-26 19:43 | 35.32395 | 60.92049 | 37144 ft | 482 kts | 137° |
| 2026-04-26 19:44 | 35.27943 | 60.98189 | 37141 ft | 482 kts | 137° |
| 2026-04-26 19:44 | 35.23499 | 61.04323 | 37136 ft | 482 kts | 137° |
| 2026-04-26 19:45 | 35.19041 | 61.10456 | 37134 ft | 482 kts | 137° |
| 2026-04-26 19:45 | 35.14388 | 61.16301 | 37129 ft | 477 kts | 143° |
| 2026-04-26 19:46 | 35.09552 | 61.21862 | 37126 ft | 478 kts | 143° |
| 2026-04-26 19:46 | 35.04711 | 61.27444 | 37126 ft | 478 kts | 143° |
| 2026-04-26 19:47 | 35.00684 | 61.32059 | 37120 ft | 477 kts | 143° |
| 2026-04-26 19:47 | 34.95044 | 61.38505 | 37110 ft | 478 kts | 143° |
| 2026-04-26 19:48 | 34.90207 | 61.44047 | 37113 ft | 478 kts | 143° |
| 2026-04-26 19:48 | 34.85343 | 61.49601 | 37107 ft | 479 kts | 143° |
| 2026-04-26 19:49 | 34.80473 | 61.55147 | 37106 ft | 479 kts | 143° |
| 2026-04-26 19:49 | 34.75610 | 61.60680 | 37107 ft | 478 kts | 143° |
| 2026-04-26 19:50 | 34.70740 | 61.66206 | 37089 ft | 478 kts | 143° |
| 2026-04-26 19:50 | 34.65879 | 61.71715 | 37089 ft | 478 kts | 143° |
| 2026-04-26 19:51 | 34.61047 | 61.77193 | 37078 ft | 477 kts | 143° |
| 2026-04-26 19:51 | 34.56193 | 61.82687 | 37075 ft | 477 kts | 143° |
| 2026-04-26 19:52 | 34.52947 | 61.86344 | 37071 ft | 477 kts | 143° |